Time;durP1;ratioP1;P1;durP2;ratioP2;P2;SDS_P1;SDS_P2;PMS_P1;PMS_P2;Temp;Humidity;BMP_temperature;BMP_pressure;BME280_temperature;BME280_humidity;BME280_pressure;Samples;Min_cycle;Max_cycle;Signal;HPM_P1;HPM_P2
2021/07/03 00:02:25;;;;;;;31.40;14.05;;;;;;;29.57;38.68;100434.88;4393275;32;20315;-77
2021/07/03 00:04:50;;;;;;;20.92;13.73;;;;;;;29.47;38.99;100436.75;4395431;32;20085;-76
2021/07/03 00:07:16;;;;;;;23.27;13.85;;;;;;;29.44;38.93;100435.03;4394200;32;20092;-76
2021/07/03 00:09:42;;;;;;;21.55;13.13;;;;;;;29.36;38.84;100429.22;4396624;32;20118;-77
2021/07/03 00:12:09;;;;;;;19.83;12.68;;;;;;;29.38;38.81;100437.31;4394044;32;20524;-77
2021/07/03 00:14:36;;;;;;;27.05;13.05;;;;;;;29.47;38.85;100431.75;4390432;32;20486;-77
2021/07/03 00:17:02;;;;;;;22.40;13.60;;;;;;;29.42;38.83;100426.16;4394541;32;20709;-77
2021/07/03 00:19:28;;;;;;;26.58;12.45;;;;;;;29.32;39.15;100425.94;4394540;32;20474;-76
2021/07/03 00:21:54;;;;;;;29.85;14.35;;;;;;;29.23;39.21;100426.47;4390701;32;20115;-76
2021/07/03 00:24:20;;;;;;;22.33;13.62;;;;;;;29.26;39.18;100421.69;4390920;32;20099;-77
2021/07/03 00:26:46;;;;;;;24.52;13.75;;;;;;;29.31;39.24;100427.28;4392073;32;20431;-77
2021/07/03 00:29:12;;;;;;;24.50;14.18;;;;;;;29.16;39.67;100423.56;4391784;32;20069;-77
2021/07/03 00:31:38;;;;;;;25.15;13.18;;;;;;;29.06;39.93;100422.59;4393253;32;20050;-76
2021/07/03 00:34:04;;;;;;;23.73;14.73;;;;;;;29.11;39.81;100427.44;4393967;32;20109;-77
2021/07/03 00:36:31;;;;;;;24.17;14.05;;;;;;;29.10;39.97;100425.88;4397379;32;20195;-77
2021/07/03 00:38:58;;;;;;;28.52;14.60;;;;;;;29.03;39.98;100428.13;4395589;32;20081;-77
2021/07/03 00:41:23;;;;;;;23.92;13.73;;;;;;;28.90;40.31;100424.63;4395796;32;20474;-77
2021/07/03 00:43:49;;;;;;;23.10;13.68;;;;;;;28.87;40.47;100422.88;4392919;32;20073;-77
2021/07/03 00:46:15;;;;;;;29.40;14.43;;;;;;;28.93;40.29;100424.25;4393757;32;20073;-77
2021/07/03 00:48:41;;;;;;;22.80;14.23;;;;;;;28.70;40.52;100420.50;4389932;32;20082;-76
2021/07/03 00:51:06;;;;;;;24.58;14.25;;;;;;;28.70;40.78;100420.50;4393982;32;20390;-77
2021/07/03 00:53:33;;;;;;;26.95;13.98;;;;;;;28.42;41.43;100422.66;4393939;32;20039;-76
2021/07/03 00:56:00;;;;;;;25.50;14.60;;;;;;;28.53;41.13;100422.38;4395917;32;20084;-76
2021/07/03 00:58:26;;;;;;;25.65;15.10;;;;;;;28.48;41.39;100420.41;4393841;32;20103;-76
2021/07/03 01:00:52;;;;;;;25.52;14.05;;;;;;;28.54;41.07;100418.91;4394104;32;20038;-78
2021/07/03 01:03:17;;;;;;;25.02;14.35;;;;;;;28.46;41.30;100425.97;4393583;32;20049;-76
2021/07/03 01:05:43;;;;;;;25.30;14.52;;;;;;;28.41;41.28;100418.22;4397558;32;20119;-77
2021/07/03 01:08:09;;;;;;;25.08;14.23;;;;;;;28.34;41.36;100413.91;4393210;32;20072;-77
2021/07/03 01:10:36;;;;;;;28.10;14.57;;;;;;;28.24;41.52;100412.91;4394574;32;20078;-77
2021/07/03 01:13:02;;;;;;;20.08;13.10;;;;;;;28.36;41.36;100411.25;4394381;32;20194;-76
2021/07/03 01:15:29;;;;;;;20.42;11.60;;;;;;;28.24;40.75;100403.44;4394568;32;20112;-77
2021/07/03 01:17:55;;;;;;;18.90;11.90;;;;;;;28.21;40.22;100405.34;4394392;32;20084;-77
2021/07/03 01:20:21;;;;;;;19.98;11.93;;;;;;;28.04;40.60;100410.84;4392963;32;20074;-76
2021/07/03 01:22:48;;;;;;;23.55;13.52;;;;;;;28.23;39.83;100407.69;4392055;32;20507;-76
2021/07/03 01:25:15;;;;;;;18.42;12.25;;;;;;;28.44;39.69;100412.03;4389671;32;20501;-76
2021/07/03 01:27:44;;;;;;;19.67;11.70;;;;;;;28.36;39.88;100408.34;4389848;32;20474;-76
2021/07/03 01:30:12;;;;;;;18.67;11.88;;;;;;;28.55;39.49;100402.28;4389975;32;20081;-77
2021/07/03 01:32:38;;;;;;;17.83;11.48;;;;;;;28.36;39.80;100405.44;4399756;32;20058;-77
2021/07/03 01:35:05;;;;;;;21.30;12.15;;;;;;;28.40;39.60;100397.16;4396960;32;20304;-76
2021/07/03 01:37:31;;;;;;;17.60;11.63;;;;;;;28.28;39.66;100400.94;4390241;32;20105;-76
2021/07/03 01:39:56;;;;;;;20.62;12.50;;;;;;;28.27;39.61;100403.09;4392664;32;20042;-76
2021/07/03 01:42:22;;;;;;;17.00;12.00;;;;;;;28.30;39.62;100395.38;4390063;32;20039;-76
2021/07/03 01:44:49;;;;;;;16.40;11.32;;;;;;;28.02;40.02;100390.41;4391145;32;20057;-77
2021/07/03 01:47:15;;;;;;;21.17;11.85;;;;;;;28.04;39.94;100386.94;4393202;32;20165;-76
2021/07/03 01:49:43;;;;;;;28.08;13.07;;;;;;;28.16;39.83;100383.13;4390994;32;20038;-77
2021/07/03 01:52:09;;;;;;;26.62;13.10;;;;;;;28.26;39.83;100381.25;4393491;32;20469;-76
2021/07/03 01:54:35;;;;;;;20.65;12.23;;;;;;;28.05;40.11;100383.47;4393742;32;20077;-76
2021/07/03 01:57:01;;;;;;;22.98;12.18;;;;;;;28.23;39.91;100387.44;4390674;32;20473;-77
2021/07/03 01:59:30;;;;;;;18.87;11.65;;;;;;;28.08;40.16;100382.34;4389289;32;20034;-77
2021/07/03 02:01:58;;;;;;;21.05;12.05;;;;;;;28.21;40.02;100375.63;4389376;32;20051;-76
2021/07/03 02:04:24;;;;;;;19.95;11.77;;;;;;;28.10;40.30;100381.75;4392065;32;20096;-77
2021/07/03 02:06:50;;;;;;;22.23;12.07;;;;;;;27.90;40.42;100382.59;4388351;32;20072;-76
2021/07/03 02:09:16;;;;;;;15.48;11.18;;;;;;;27.79;40.41;100382.87;4395317;32;20058;-76
2021/07/03 02:11:42;;;;;;;20.23;11.75;;;;;;;27.84;40.41;100382.72;4390910;32;20343;-77
2021/07/03 02:14:08;;;;;;;15.75;11.18;;;;;;;27.96;40.14;100380.31;4394766;32;20062;-76
2021/07/03 02:16:34;;;;;;;18.33;11.00;;;;;;;27.78;40.40;100376.31;4389771;32;20027;-76
2021/07/03 02:19:01;;;;;;;20.70;11.82;;;;;;;27.89;40.28;100373.13;4392079;32;21423;-77
2021/07/03 02:21:27;;;;;;;20.00;10.85;;;;;;;27.99;40.04;100374.16;4395083;32;20081;-77
2021/07/03 02:23:53;;;;;;;19.33;11.70;;;;;;;27.85;40.29;100374.81;4390851;32;20026;-76
2021/07/03 02:26:21;;;;;;;18.62;11.20;;;;;;;27.94;40.08;100377.97;4388985;32;20139;-76
2021/07/03 02:28:47;;;;;;;18.92;11.52;;;;;;;28.17;39.57;100381.81;4394049;32;20065;-77
2021/07/03 02:31:13;;;;;;;17.83;11.60;;;;;;;27.85;40.10;100378.47;4392760;32;20065;-77
2021/07/03 02:33:39;;;;;;;16.62;11.18;;;;;;;27.84;40.10;100373.25;4394888;32;20072;-77
2021/07/03 02:36:04;;;;;;;20.67;11.73;;;;;;;27.81;40.07;100380.16;4394663;32;20097;-76
2021/07/03 02:38:30;;;;;;;17.60;11.63;;;;;;;27.83;39.73;100368.81;4390645;32;20108;-76
2021/07/03 02:40:56;;;;;;;18.90;11.55;;;;;;;27.67;39.95;100370.81;4392469;32;20473;-76
2021/07/03 02:43:22;;;;;;;19.35;11.40;;;;;;;27.68;40.03;100372.37;4393888;32;20472;-76
2021/07/03 02:45:47;;;;;;;18.60;11.18;;;;;;;27.77;39.83;100368.19;4393169;32;20143;-77
2021/07/03 02:48:13;;;;;;;20.60;11.35;;;;;;;27.79;39.73;100365.53;4392890;32;20116;-77
2021/07/03 02:50:38;;;;;;;22.23;11.38;;;;;;;27.68;39.97;100368.72;4391776;32;20100;-77
2021/07/03 02:53:04;;;;;;;18.98;12.50;;;;;;;27.54;40.28;100367.22;4393159;32;20073;-77
2021/07/03 02:55:30;;;;;;;19.27;12.50;;;;;;;27.47;40.34;100365.84;4395383;32;20030;-77
2021/07/03 02:57:56;;;;;;;19.02;12.10;;;;;;;27.59;39.98;100361.31;4394835;32;20082;-77
2021/07/03 03:00:22;;;;;;;24.65;13.05;;;;;;;27.60;39.97;100359.19;4388707;32;20081;-76
2021/07/03 03:02:47;;;;;;;21.85;12.70;;;;;;;27.73;39.90;100359.88;4392792;32;20058;-77
2021/07/03 03:05:14;;;;;;;23.67;12.65;;;;;;;27.64;40.05;100356.72;4397180;32;20097;-77
2021/07/03 03:07:41;;;;;;;20.98;12.55;;;;;;;27.85;39.78;100343.75;4395932;32;20061;-77
2021/07/03 03:10:12;;;;;;;18.45;12.30;;;;;;;27.76;39.65;100344.28;4392108;32;20086;-77
2021/07/03 03:12:37;;;;;;;21.37;12.55;;;;;;;27.89;39.71;100344.19;4397332;32;20465;-76
2021/07/03 03:15:04;;;;;;;18.83;11.38;;;;;;;27.61;40.04;100335.50;4397266;32;20046;-77
2021/07/03 03:17:30;;;;;;;19.37;11.90;;;;;;;27.81;39.83;100334.69;4393163;32;20125;-76
2021/07/03 03:19:56;;;;;;;21.33;12.82;;;;;;;27.90;39.59;100322.63;4395245;32;20535;-76
2021/07/03 03:22:22;;;;;;;20.33;12.68;;;;;;;27.82;39.82;100327.53;4396203;32;20030;-76
2021/07/03 03:24:49;;;;;;;20.65;12.80;;;;;;;27.69;39.96;100330.56;4393648;32;20113;-76
2021/07/03 03:27:15;;;;;;;20.85;13.13;;;;;;;27.78;40.00;100332.16;4392109;32;21163;-76
2021/07/03 03:29:41;;;;;;;21.67;13.57;;;;;;;27.86;39.89;100330.91;4396754;32;20481;-76
2021/07/03 03:32:07;;;;;;;24.10;12.85;;;;;;;27.87;39.82;100328.75;4392133;32;20438;-78
2021/07/03 03:34:33;;;;;;;21.10;13.23;;;;;;;27.58;40.37;100335.87;4394829;32;20078;-76
2021/07/03 03:36:59;;;;;;;20.83;12.52;;;;;;;27.71;39.84;100336.56;4394522;32;20359;-77
2021/07/03 03:39:25;;;;;;;21.85;12.68;;;;;;;27.58;40.15;100335.87;4390243;32;20073;-77
2021/07/03 03:41:51;;;;;;;19.35;12.10;;;;;;;27.73;39.98;100341.75;4397133;32;20469;-77
2021/07/03 03:44:16;;;;;;;22.62;11.98;;;;;;;27.60;40.28;100342.63;4397808;32;20078;-76
2021/07/03 03:46:42;;;;;;;19.35;12.37;;;;;;;27.68;40.08;100331.91;4392153;32;20517;-77
2021/07/03 03:49:08;;;;;;;19.90;12.55;;;;;;;27.72;39.92;100335.19;4392784;32;20561;-76
2021/07/03 03:51:34;;;;;;;22.85;12.93;;;;;;;27.70;40.04;100334.22;4395196;32;20076;-76
2021/07/03 03:53:59;;;;;;;19.50;11.98;;;;;;;27.61;40.25;100334.75;4393467;32;20064;-77
2021/07/03 03:56:26;;;;;;;27.73;12.75;;;;;;;27.45;40.64;100325.16;4392967;32;20054;-77
2021/07/03 03:58:52;;;;;;;22.10;12.20;;;;;;;27.43;40.54;100324.97;4395994;32;20100;-76
2021/07/03 04:01:18;;;;;;;25.42;13.02;;;;;;;27.48;40.48;100326.16;4392766;32;20054;-76
2021/07/03 04:03:43;;;;;;;24.50;13.73;;;;;;;27.39;40.85;100329.56;4396338;32;20081;-76
2021/07/03 04:06:09;;;;;;;21.85;12.68;;;;;;;27.47;40.66;100327.47;4395530;32;20043;-76
2021/07/03 04:08:36;;;;;;;24.50;13.77;;;;;;;27.52;40.62;100323.69;4391986;32;20106;-77
2021/07/03 04:11:02;;;;;;;21.37;13.55;;;;;;;27.46;40.61;100326.72;4390597;32;20042;-76
2021/07/03 04:13:28;;;;;;;19.75;12.73;;;;;;;27.49;40.61;100319.81;4390691;32;20053;-76
2021/07/03 04:15:54;;;;;;;22.83;13.40;;;;;;;27.51;40.54;100319.22;4393754;32;20065;-76
2021/07/03 04:18:20;;;;;;;19.95;12.65;;;;;;;27.57;40.40;100311.16;4395622;32;20084;-76
2021/07/03 04:20:45;;;;;;;22.55;12.80;;;;;;;27.52;40.45;100309.97;4394615;32;20461;-75
2021/07/03 04:23:11;;;;;;;20.27;11.75;;;;;;;27.58;40.46;100310.59;4392949;32;20066;-75
2021/07/03 04:25:37;;;;;;;20.42;12.65;;;;;;;27.58;40.43;100310.59;4396306;32;20093;-76
2021/07/03 04:28:03;;;;;;;22.60;12.90;;;;;;;27.68;40.38;100308.78;4391020;32;20065;-76
2021/07/03 04:30:28;;;;;;;21.67;13.07;;;;;;;27.68;40.18;100308.78;4392859;32;20038;-76
2021/07/03 04:32:54;;;;;;;23.27;12.98;;;;;;;27.67;40.52;100312.22;4395316;32;20463;-76
2021/07/03 04:35:21;;;;;;;21.05;12.88;;;;;;;27.72;40.37;100311.28;4394911;32;20446;-75
2021/07/03 04:37:47;;;;;;;21.98;13.05;;;;;;;27.48;40.87;100306.69;4391971;32;20417;-76
2021/07/03 04:40:13;;;;;;;21.35;12.90;;;;;;;27.64;40.57;100308.34;4395250;32;20085;-76
2021/07/03 04:42:39;;;;;;;21.75;13.38;;;;;;;27.64;40.47;100308.34;4391375;32;20116;-76
2021/07/03 04:45:06;;;;;;;23.92;12.90;;;;;;;27.81;40.14;100308.66;4392677;32;20496;-76
2021/07/03 04:47:32;;;;;;;20.98;12.65;;;;;;;27.85;40.16;100305.41;4394721;32;20054;-76
2021/07/03 04:49:58;;;;;;;23.50;13.60;;;;;;;27.57;40.56;100302.50;4395391;32;20514;-76
2021/07/03 04:52:26;;;;;;;20.35;13.02;;;;;;;27.53;40.43;100307.87;4396170;32;20115;-76
2021/07/03 04:54:53;;;;;;;23.83;13.82;;;;;;;27.63;40.45;100300.22;4394397;32;20392;-76
2021/07/03 04:57:19;;;;;;;21.55;13.10;;;;;;;27.42;41.00;100311.09;4395451;32;20391;-76
2021/07/03 04:59:44;;;;;;;21.40;13.77;;;;;;;27.59;40.73;100305.59;4391900;32;20142;-76
2021/07/03 05:02:13;;;;;;;23.65;14.38;;;;;;;27.50;40.81;100301.13;4394426;32;20051;-76
2021/07/03 05:04:40;;;;;;;22.55;13.43;;;;;;;27.65;40.61;100301.22;4393768;32;20074;-76
2021/07/03 05:07:06;;;;;;;23.17;14.48;;;;;;;27.60;40.84;100304.25;4394575;32;20086;-76
2021/07/03 05:09:32;;;;;;;27.42;14.32;;;;;;;27.63;40.73;100301.03;4390430;32;20037;-77
2021/07/03 05:11:59;;;;;;;27.50;14.32;;;;;;;27.74;40.51;100300.72;4394939;32;20258;-76
2021/07/03 05:14:25;;;;;;;23.55;15.07;;;;;;;27.82;40.43;100301.53;4392367;32;20583;-76
2021/07/03 05:16:50;;;;;;;23.38;13.40;;;;;;;27.54;40.79;100298.63;4395773;32;20031;-76
2021/07/03 05:19:17;;;;;;;22.42;13.77;;;;;;;27.67;40.70;100307.19;4392800;32;20042;-77
2021/07/03 05:21:43;;;;;;;23.75;13.77;;;;;;;27.55;40.96;100305.22;4392722;32;20043;-75
2021/07/03 05:24:09;;;;;;;27.55;14.90;;;;;;;27.83;40.90;100294.41;4392875;32;20055;-75
2021/07/03 05:26:35;;;;;;;26.27;14.90;;;;;;;27.70;41.09;100299.53;4390784;32;20074;-76
2021/07/03 05:29:03;;;;;;;19.00;12.77;;;;;;;27.83;41.16;100303.09;4392315;32;20081;-75
2021/07/03 05:31:30;;;;;;;21.17;14.27;;;;;;;27.91;41.13;100312.59;4396643;32;20030;-75
2021/07/03 05:33:56;;;;;;;24.75;13.75;;;;;;;28.12;40.89;100310.41;4394419;32;20046;-77
2021/07/03 05:36:21;;;;;;;23.73;13.93;;;;;;;27.92;40.74;100302.56;4391832;32;20339;-75
2021/07/03 05:38:49;;;;;;;25.05;15.15;;;;;;;27.94;40.64;100302.00;4394977;32;20077;-75
2021/07/03 05:41:17;;;;;;;26.75;15.73;;;;;;;28.09;40.74;100305.75;4390929;32;20090;-76
2021/07/03 05:43:43;;;;;;;26.17;14.77;;;;;;;28.21;40.39;100304.09;4394355;32;20112;-75
2021/07/03 05:46:11;;;;;;;26.75;15.48;;;;;;;28.29;40.36;100304.87;4394778;32;20086;-76
2021/07/03 05:48:39;;;;;;;24.90;15.40;;;;;;;28.40;40.74;100298.75;4388963;32;20149;-75
2021/07/03 05:51:05;;;;;;;23.80;15.43;;;;;;;28.37;40.94;100304.91;4391195;32;20092;-76
2021/07/03 05:53:31;;;;;;;27.25;15.35;;;;;;;28.07;41.64;100304.78;4395595;32;20074;-76
2021/07/03 05:55:57;;;;;;;26.77;15.93;;;;;;;28.22;41.93;100308.50;4389831;32;20076;-76
2021/07/03 05:58:22;;;;;;;29.33;16.98;;;;;;;28.17;42.41;100308.69;4397929;32;20502;-76
2021/07/03 06:00:48;;;;;;;31.80;17.37;;;;;;;28.22;41.99;100301.97;4392687;32;20110;-76
2021/07/03 06:03:15;;;;;;;31.00;16.70;;;;;;;28.41;42.15;100296.62;4392495;32;20435;-76
2021/07/03 06:05:40;;;;;;;32.08;17.40;;;;;;;28.42;42.05;100301.84;4392149;32;20415;-76
2021/07/03 06:08:06;;;;;;;33.53;17.23;;;;;;;28.51;41.76;100300.56;4393141;32;20061;-76
2021/07/03 06:10:32;;;;;;;28.98;17.15;;;;;;;28.27;41.43;100307.59;4391908;32;20385;-76
2021/07/03 06:12:59;;;;;;;28.02;16.45;;;;;;;28.37;41.75;100299.91;4391279;32;20096;-76
2021/07/03 06:15:24;;;;;;;28.45;16.25;;;;;;;28.42;41.73;100304.75;4392881;32;20126;-76
2021/07/03 06:17:50;;;;;;;28.08;17.20;;;;;;;28.48;41.61;100298.81;4394886;32;20065;-76
2021/07/03 06:20:16;;;;;;;29.12;16.98;;;;;;;28.68;41.60;100309.47;4395751;32;20399;-76
2021/07/03 06:22:42;;;;;;;30.67;16.65;;;;;;;28.77;41.67;100303.12;4394157;32;20030;-76
2021/07/03 06:25:10;;;;;;;27.40;15.75;;;;;;;28.67;41.76;100305.03;4391500;32;20391;-76
2021/07/03 06:27:37;;;;;;;26.77;18.30;;;;;;;28.66;41.89;100304.25;4392680;32;20025;-76
2021/07/03 06:30:05;;;;;;;28.45;17.48;;;;;;;28.47;42.00;100303.81;4392578;32;20094;-76
2021/07/03 06:32:31;;;;;;;28.92;17.27;;;;;;;28.31;42.63;100313.75;4394069;32;20050;-76
2021/07/03 06:34:57;;;;;;;30.35;16.92;;;;;;;28.22;42.85;100310.66;4397111;32;20107;-76
2021/07/03 06:37:22;;;;;;;29.55;17.95;;;;;;;28.10;43.04;100307.28;4396337;32;20112;-76
2021/07/03 06:39:48;;;;;;;30.70;16.60;;;;;;;27.86;43.52;100306.97;4395470;32;20524;-76
2021/07/03 06:42:16;;;;;;;35.13;18.25;;;;;;;27.96;43.37;100308.00;4393727;32;20061;-76
2021/07/03 06:44:44;;;;;;;29.50;17.92;;;;;;;27.85;43.78;100309.06;4394997;32;20088;-77
2021/07/03 06:47:10;;;;;;;33.72;17.83;;;;;;;27.79;44.03;100310.59;4394143;32;20486;-75
2021/07/03 06:49:36;;;;;;;32.22;18.52;;;;;;;27.52;44.39;100312.88;4392116;32;20051;-77
2021/07/03 06:52:02;;;;;;;30.40;17.42;;;;;;;27.36;45.02;100310.47;4394288;32;20485;-78
2021/07/03 06:54:28;;;;;;;32.90;17.52;;;;;;;27.55;44.76;100300.19;4397587;32;20345;-77
2021/07/03 06:57:00;;;;;;;31.20;17.83;;;;;;;27.76;44.81;100303.78;4393529;32;20086;-77
2021/07/03 06:59:27;;;;;;;27.62;18.10;;;;;;;27.48;44.59;100303.03;4394186;32;20066;-77
2021/07/03 07:01:54;;;;;;;27.35;17.80;;;;;;;27.58;44.94;100301.19;4393470;32;20059;-78
2021/07/03 07:04:20;;;;;;;28.75;16.52;;;;;;;27.52;45.11;100306.34;4396309;32;20027;-77
2021/07/03 07:06:49;;;;;;;27.55;17.02;;;;;;;27.19;45.38;100308.72;4396328;32;20094;-77
2021/07/03 07:09:15;;;;;;;27.23;16.65;;;;;;;27.33;45.22;100309.47;4393711;32;20147;-78
2021/07/03 07:11:42;;;;;;;27.95;17.27;;;;;;;27.07;45.46;100309.59;4394997;32;20051;-77
2021/07/03 07:14:07;;;;;;;29.30;16.27;;;;;;;26.82;45.58;100308.37;4394458;32;20039;-77
2021/07/03 07:16:34;;;;;;;29.50;16.48;;;;;;;26.97;45.63;100311.44;4397640;32;20025;-77
2021/07/03 07:19:00;;;;;;;24.98;15.45;;;;;;;26.92;45.24;100307.34;4394365;32;20092;-78
2021/07/03 07:21:27;;;;;;;25.40;15.43;;;;;;;27.03;45.43;100307.03;4393148;32;20069;-78
2021/07/03 07:23:52;;;;;;;26.45;16.48;;;;;;;27.18;45.47;100315.06;4393575;32;20022;-75
2021/07/03 07:26:18;;;;;;;24.98;16.08;;;;;;;27.33;45.11;100312.34;4394152;32;20034;-76
2021/07/03 07:28:44;;;;;;;25.60;16.25;;;;;;;27.11;45.12;100313.69;4394402;32;20054;-77
2021/07/03 07:31:11;;;;;;;25.30;15.48;;;;;;;27.30;45.40;100322.13;4392704;32;20086;-75
2021/07/03 07:33:37;;;;;;;30.37;16.73;;;;;;;27.35;45.23;100321.22;4395407;32;20102;-76
2021/07/03 07:36:02;;;;;;;26.85;15.88;;;;;;;27.35;46.02;100315.44;4392882;32;20030;-78
2021/07/03 07:38:28;;;;;;;26.62;15.38;;;;;;;27.74;44.67;100308.59;4392127;32;20074;-78
2021/07/03 07:40:54;;;;;;;24.05;15.30;;;;;;;27.92;44.62;100307.59;4395110;32;20052;-78
2021/07/03 07:43:20;;;;;;;28.67;15.35;;;;;;;28.24;43.73;100320.31;4398324;32;20412;-79
2021/07/03 07:45:46;;;;;;;27.50;15.68;;;;;;;28.54;43.44;100308.09;4395537;32;20093;-78
2021/07/03 07:48:11;;;;;;;23.52;14.18;;;;;;;28.53;43.40;100321.78;4393936;32;20106;-76
2021/07/03 07:50:38;;;;;;;23.95;15.32;;;;;;;28.13;43.87;100323.50;4393462;32;20103;-77
2021/07/03 07:53:04;;;;;;;25.08;14.95;;;;;;;28.29;43.56;100321.47;4397368;32;20084;-76
2021/07/03 07:55:29;;;;;;;22.95;14.63;;;;;;;28.38;43.12;100324.59;4398217;32;20051;-77
2021/07/03 07:57:55;;;;;;;24.70;15.02;;;;;;;28.26;43.28;100320.47;4398457;32;20078;-77
2021/07/03 08:00:22;;;;;;;20.37;13.85;;;;;;;28.48;43.78;100316.19;4393047;32;20042;-77
2021/07/03 08:02:49;;;;;;;20.05;12.68;;;;;;;28.60;43.58;100315.25;4398502;32;20113;-77
2021/07/03 08:05:15;;;;;;;22.42;13.27;;;;;;;28.94;43.10;100315.72;4393989;32;20111;-76
2021/07/03 08:07:42;;;;;;;21.58;12.45;;;;;;;28.59;43.34;100313.69;4391200;32;20080;-77
2021/07/03 08:10:11;;;;;;;19.67;11.15;;;;;;;28.69;42.83;100314.69;4392835;32;20112;-77
2021/07/03 08:12:38;;;;;;;19.70;12.32;;;;;;;29.00;41.32;100318.44;4392594;32;20112;-75
2021/07/03 08:15:06;;;;;;;22.95;11.18;;;;;;;28.78;42.04;100319.16;4392548;32;20026;-77
2021/07/03 08:17:31;;;;;;;18.98;10.63;;;;;;;28.67;41.12;100319.50;4395365;32;20158;-76
2021/07/03 08:19:57;;;;;;;20.88;11.82;;;;;;;28.50;41.40;100308.47;4393745;32;20217;-77
2021/07/03 08:22:24;;;;;;;17.55;11.32;;;;;;;28.71;41.48;100314.91;4391810;32;20078;-77
2021/07/03 08:24:49;;;;;;;20.62;11.43;;;;;;;28.58;41.49;100308.47;4392584;32;20123;-75
2021/07/03 08:27:15;;;;;;;21.40;11.48;;;;;;;28.54;41.90;100308.09;4390907;32;20082;-77
2021/07/03 08:29:41;;;;;;;16.10;10.70;;;;;;;28.74;42.03;100310.84;4393482;32;20043;-77
2021/07/03 08:32:07;;;;;;;18.83;11.93;;;;;;;28.67;41.89;100314.50;4390099;32;20019;-77
2021/07/03 08:34:33;;;;;;;17.58;11.18;;;;;;;28.42;43.73;100319.22;4390844;32;20046;-75
2021/07/03 08:37:00;;;;;;;17.98;12.10;;;;;;;28.26;43.14;100311.81;4397175;32;20051;-76
2021/07/03 08:39:26;;;;;;;18.08;11.57;;;;;;;28.09;43.38;100304.97;4396696;32;20046;-76
2021/07/03 08:41:52;;;;;;;20.65;11.82;;;;;;;28.04;43.90;100312.47;4394366;32;20123;-76
2021/07/03 08:44:18;;;;;;;19.20;10.85;;;;;;;28.15;44.02;100311.37;4390542;32;20475;-76
2021/07/03 08:46:44;;;;;;;18.40;11.63;;;;;;;27.95;44.14;100312.25;4393517;32;20073;-77
2021/07/03 08:49:12;;;;;;;16.62;11.07;;;;;;;27.86;44.25;100313.56;4395388;32;20147;-77
2021/07/03 08:51:42;;;;;;;18.77;12.07;;;;;;;27.75;44.36;100305.16;4392279;32;20440;-77
2021/07/03 08:54:09;;;;;;;16.33;10.20;;;;;;;28.01;43.92;100307.06;4395570;32;20109;-75
2021/07/03 08:56:34;;;;;;;19.98;10.82;;;;;;;27.55;44.67;100305.22;4396853;32;20046;-76
2021/07/03 08:59:00;;;;;;;17.65;11.93;;;;;;;27.73;44.69;100304.94;4392719;32;20361;-76
2021/07/03 09:01:26;;;;;;;20.67;11.30;;;;;;;27.79;44.96;100296.88;4394554;32;20066;-76
2021/07/03 09:03:55;;;;;;;19.50;12.70;;;;;;;27.88;44.40;100296.38;4391006;32;20179;-77
2021/07/03 09:06:35;;;;;;;19.17;11.57;;;;;;;27.90;45.20;100296.59;4396896;32;20038;-75
2021/07/03 09:09:02;;;;;;;23.00;12.45;;;;;;;27.98;44.86;100291.59;4391292;32;20046;-76
2021/07/03 09:11:28;;;;;;;26.62;12.80;;;;;;;27.63;45.94;100294.44;4396550;32;20093;-75
2021/07/03 09:14:06;;;;;;;19.83;12.07;;;;;;;27.50;46.38;100288.78;4393813;32;20154;-75
2021/07/03 09:16:35;;;;;;;17.60;11.27;;;;;;;27.95;45.46;100281.19;4394884;32;20100;-76
2021/07/03 09:19:02;;;;;;;14.87;8.95;;;;;;;27.94;45.85;100282.53;4391803;32;20088;-76
2021/07/03 09:21:30;;;;;;;14.43;8.32;;;;;;;27.91;45.30;100280.00;4394612;32;20089;-77
2021/07/03 09:23:57;;;;;;;11.93;8.40;;;;;;;27.89;44.27;100280.56;4391514;32;20050;-77
2021/07/03 09:26:23;;;;;;;14.02;8.55;;;;;;;27.69;45.19;100286.41;4397033;32;20038;-77
2021/07/03 09:28:49;;;;;;;13.50;8.50;;;;;;;27.59;45.15;100279.59;4393244;32;20085;-77
2021/07/03 09:31:17;;;;;;;14.25;9.27;;;;;;;27.55;45.58;100279.94;4393239;32;20150;-77
2021/07/03 09:33:49;;;;;;;18.80;9.13;;;;;;;27.80;44.59;100280.31;4388881;32;20644;-77
2021/07/03 09:36:22;;;;;;;15.73;9.10;;;;;;;27.88;45.18;100272.47;4392177;32;20107;-77
2021/07/03 09:38:50;;;;;;;12.73;8.70;;;;;;;27.53;45.28;100276.88;4392668;32;20454;-78
2021/07/03 09:46:46;;;;;;;15.55;9.65;;;;;;;28.25;45.55;100286.31;3984591;32;15022119;-78
2021/07/03 09:49:15;;;;;;;20.15;9.88;;;;;;;28.25;45.55;100286.31;4436581;32;20064;-74
2021/07/03 09:54:19;;;;;;;21.65;11.93;;;;;;;27.67;48.29;100275.41;3956040;32;15722414;-77
2021/07/03 09:56:46;;;;;;;18.48;11.00;;;;;;;27.67;48.29;100275.41;4431601;32;20473;-78
2021/07/03 09:59:13;;;;;;;15.43;10.68;;;;;;;27.50;48.07;100272.22;4418377;32;20495;-77
2021/07/03 10:01:42;;;;;;;12.55;8.77;;;;;;;27.59;47.25;100279.59;4412389;32;20042;-74
2021/07/03 10:04:08;;;;;;;15.63;9.48;;;;;;;27.73;46.90;100275.25;4417693;32;20085;-75
2021/07/03 10:06:43;;;;;;;12.63;8.20;;;;;;;27.67;46.83;100278.28;4413337;32;20109;-76
2021/07/03 10:09:21;;;;;;;12.35;6.30;;;;;;;27.72;46.15;100274.47;4414256;32;20091;-75
2021/07/03 10:11:50;;;;;;;11.07;6.15;;;;;;;27.59;45.88;100283.25;4414967;32;20073;-76
2021/07/03 10:14:17;;;;;;;10.63;6.05;;;;;;;27.51;45.11;100285.31;4415276;32;20107;-76
2021/07/03 10:16:43;;;;;;;12.40;7.25;;;;;;;27.22;45.61;100289.50;4415916;32;20042;-76
2021/07/03 10:19:15;;;;;;;11.20;7.10;;;;;;;26.87;46.29;100287.25;4412688;32;20396;-75
2021/07/03 10:21:44;;;;;;;11.02;7.10;;;;;;;27.14;46.14;100298.09;4416365;32;20054;-74
2021/07/03 10:24:25;;;;;;;12.75;7.25;;;;;;;27.07;47.16;100300.94;4417358;32;20067;-76
2021/07/03 10:26:51;;;;;;;12.63;7.85;;;;;;;26.76;47.16;100305.66;4413640;32;20097;-76
2021/07/03 10:29:19;;;;;;;13.40;8.18;;;;;;;26.63;47.95;100297.03;4407517;32;20102;-74
2021/07/03 10:31:46;;;;;;;16.85;7.75;;;;;;;26.45;48.10;100309.47;4417332;32;20087;-75
2021/07/03 10:34:12;;;;;;;15.93;9.60;;;;;;;26.43;47.97;100305.59;4414733;32;20042;-77
2021/07/03 10:36:39;;;;;;;19.23;9.60;;;;;;;26.33;48.89;100301.66;4412841;32;20415;-77
2021/07/03 10:39:05;;;;;;;14.60;8.55;;;;;;;26.34;48.97;100297.41;4418785;32;20061;-79
2021/07/03 10:41:33;;;;;;;12.13;8.13;;;;;;;26.40;48.86;100306.72;4416123;32;20106;-78
2021/07/03 10:44:09;;;;;;;13.25;8.07;;;;;;;26.23;48.28;100306.34;4411533;32;20463;-77
2021/07/03 10:46:42;;;;;;;9.85;6.40;;;;;;;26.02;49.07;100297.63;4417597;32;20166;-76
2021/07/03 10:49:12;;;;;;;12.55;7.22;;;;;;;26.07;48.56;100307.44;4411522;32;20065;-78
2021/07/03 10:51:42;;;;;;;11.82;7.75;;;;;;;26.25;48.38;100300.78;4413914;32;20061;-79
2021/07/03 10:57:01;;;;;;;17.80;7.75;;;;;;;27.16;47.94;100309.84;3983862;32;15023957;-74
2021/07/03 10:59:29;;;;;;;11.65;7.72;;;;;;;27.16;47.94;100309.84;4435958;32;20107;-76
2021/07/03 11:02:16;;;;;;;11.07;7.18;;;;;;;26.92;47.80;100304.47;4432100;32;20071;-77
2021/07/03 11:04:45;;;;;;;12.52;7.35;;;;;;;27.31;46.10;100309.25;4425106;32;20104;-77
2021/07/03 11:07:13;;;;;;;12.75;7.47;;;;;;;27.33;46.85;100297.16;4423370;32;20308;-76
2021/07/03 11:09:39;;;;;;;10.10;6.97;;;;;;;27.13;47.11;100302.31;4426500;32;20033;-78
2021/07/03 11:14:54;;;;;;;13.77;7.45;;;;;;;28.52;44.08;100285.50;3982191;32;15024914;-75
2021/07/03 11:17:22;;;;;;;13.40;6.90;;;;;;;28.52;44.08;100285.50;4430965;32;20091;-74
2021/07/03 11:19:50;;;;;;;10.85;7.43;;;;;;;28.14;44.40;100278.00;4433733;32;20065;-76
2021/07/03 11:22:22;;;;;;;10.45;6.00;;;;;;;28.19;43.71;100272.03;4433280;32;20038;-77